الصفحة الرئيسية
METAR-TAF:

METAR-TAF

مطار :

بايسون, أريزونا, الولايات المتحدة

دائرة عرض: 34-15-25N, خط طول: 111-20-21W, ارتفاع: 1572 متر

مراقبة الطقس الحالي

تاريخ ووقت الإصدار 25 دقيقة قبل الساعة 05:15UTC
ريح 4 عقدة من الشمال الشرقي
درجة الحرارة 2°درجة مئوية
الرطوبة 100%
ضغط 1019 hPa
الرؤية: 12.9 كم
غيوم قليلة على ارتفاع 400 قدم
غيوم مفككة على ارتفاع 1800 قدم
ملبد بالغيوم على ارتفاع 5000 قدم

METAR: KPAN 220515Z AUTO 05004KT 8SM FEW004 BKN018 OVC050 02/02 A3010 RMK AO2

زمن: 22:40 (05:40 UTC)


TAF: مفقودة

أرصاد الطقس والتوقعات من أكثر من 4000 مطار (تقارير الطقس للمطار METAR والتنبؤ بالطقس بالمطارTAF).

المحطات المتاحة هي النقط الصفراء والحمراء على الخريطة.

حرك المؤشر فوق النقطة لمعرفة اسم المحطة.

ثم انقر لمعرفة أرصاد وتوقعات الطقس.

لتغيير الخارطة: اضغط على الأزرار الخضراء مع رمز الصليب الأسود للتكبير. على الزر الأخضر مع شرطة للتصغير، أو على الأسهم الخضراء للخرائط المجاورة.


METAR-TAF: